createdAt,value
2023-03-18T00:00:43.612Z,1.90
2023-03-18T00:03:28.693Z,2.03
2023-03-18T00:06:19.825Z,2.23
2023-03-18T00:09:05.504Z,1.90
2023-03-18T00:11:50.454Z,1.80
2023-03-18T00:14:37.808Z,2.10
2023-03-18T00:17:22.800Z,1.87
2023-03-18T00:20:10.014Z,2.13
2023-03-18T00:22:57.378Z,1.77
2023-03-18T00:25:43.814Z,2.00
2023-03-18T00:28:29.565Z,2.00
2023-03-18T00:31:15.427Z,1.90
2023-03-18T00:34:01.070Z,2.10
2023-03-18T00:36:48.967Z,1.73
2023-03-18T00:39:35.662Z,1.70
2023-03-18T00:42:22.151Z,1.83
2023-03-18T00:45:10.935Z,1.93
2023-03-18T00:47:56.572Z,1.90
2023-03-18T00:50:41.758Z,2.03
2023-03-18T00:53:26.666Z,1.80
2023-03-18T00:56:13.983Z,1.87
2023-03-18T00:59:00.236Z,2.07
2023-03-18T01:01:45.571Z,1.87
2023-03-18T01:04:31.109Z,1.90
2023-03-18T01:07:16.487Z,1.73
2023-03-18T01:10:02.080Z,2.43
2023-03-18T01:12:47.174Z,2.57
2023-03-18T01:15:32.306Z,1.90
2023-03-18T01:18:18.291Z,2.07
2023-03-18T01:21:04.356Z,1.80
2023-03-18T01:23:54.260Z,1.93
2023-03-18T01:26:39.540Z,2.00
2023-03-18T01:29:25.190Z,1.73
2023-03-18T01:32:10.634Z,1.77
2023-03-18T01:34:55.795Z,1.70
2023-03-18T01:37:41.954Z,2.00
2023-03-18T01:40:33.415Z,1.73
2023-03-18T01:43:26.425Z,1.90
2023-03-18T01:46:33.386Z,2.00
2023-03-18T01:49:25.084Z,2.00
2023-03-18T01:52:18.187Z,1.90
2023-03-18T01:55:08.428Z,2.27
2023-03-18T01:57:55.218Z,1.80
2023-03-18T02:00:44.859Z,2.20
2023-03-18T02:03:30.632Z,2.00
2023-03-18T02:06:16.166Z,2.00
2023-03-18T02:09:04.224Z,2.07
2023-03-18T02:11:51.668Z,2.43
2023-03-18T02:14:39.417Z,1.90
2023-03-18T02:17:32.339Z,2.17
2023-03-18T02:20:37.137Z,1.90
2023-03-18T02:23:33.378Z,2.30
2023-03-18T02:26:42.125Z,1.90
2023-03-18T02:29:31.222Z,1.90
2023-03-18T02:32:22.010Z,2.23
2023-03-18T02:35:11.664Z,2.30
2023-03-18T02:37:58.768Z,2.40
2023-03-18T02:40:44.458Z,2.10
2023-03-18T02:43:37.410Z,1.93
2023-03-18T02:46:31.585Z,2.50
2023-03-18T02:49:19.073Z,2.10
2023-03-18T02:52:05.478Z,2.20
2023-03-18T02:54:51.609Z,2.30
2023-03-18T02:57:37.026Z,2.13
2023-03-18T03:00:23.297Z,2.03
2023-03-18T03:03:08.360Z,2.10
2023-03-18T03:05:53.943Z,2.33
2023-03-18T03:08:41.410Z,2.30
2023-03-18T03:11:28.285Z,1.77
2023-03-18T03:14:19.224Z,2.20
2023-03-18T03:17:08.003Z,2.47
2023-03-18T03:19:53.201Z,2.23
2023-03-18T03:22:38.710Z,2.30
2023-03-18T03:25:24.281Z,2.00
2023-03-18T03:28:09.437Z,2.03
2023-03-18T03:30:55.776Z,1.90
2023-03-18T03:33:43.618Z,2.07
2023-03-18T03:36:28.930Z,2.37
2023-03-18T03:39:14.998Z,1.87
2023-03-18T03:42:00.760Z,2.57
2023-03-18T03:44:46.351Z,2.20
2023-03-18T03:47:32.730Z,2.20
2023-03-18T03:50:19.662Z,2.00
2023-03-18T03:53:06.733Z,2.50
2023-03-18T03:55:53.214Z,2.30
2023-03-18T03:58:38.682Z,2.00
2023-03-18T04:01:24.708Z,2.30
2023-03-18T04:04:10.645Z,2.30
2023-03-18T04:06:56.126Z,1.97
2023-03-18T04:09:42.362Z,1.97
2023-03-18T04:12:27.268Z,2.10
2023-03-18T04:15:19.744Z,2.13
2023-03-18T04:18:07.220Z,2.00
2023-03-18T04:20:54.133Z,2.10
2023-03-18T04:23:58.131Z,2.20
2023-03-18T04:26:43.818Z,2.10
2023-03-18T04:29:29.677Z,1.90
2023-03-18T04:32:14.962Z,1.80
2023-03-18T04:35:01.030Z,2.30
2023-03-18T04:37:47.050Z,2.33
2023-03-18T04:40:33.097Z,2.10
2023-03-18T04:43:19.583Z,1.97
2023-03-18T04:46:07.542Z,2.10
2023-03-18T04:48:53.909Z,2.17
2023-03-18T04:51:39.482Z,2.30
2023-03-18T04:54:30.811Z,2.23
2023-03-18T04:57:19.847Z,2.00
2023-03-18T05:00:14.822Z,2.00
2023-03-18T05:03:02.115Z,2.23
2023-03-18T05:05:49.075Z,2.20
2023-03-18T05:08:38.647Z,2.03
2023-03-18T05:11:25.328Z,1.70
2023-03-18T05:14:11.270Z,2.27
2023-03-18T05:17:02.406Z,2.10
2023-03-18T05:19:49.344Z,2.47
2023-03-18T05:22:39.997Z,2.00
2023-03-18T05:25:33.434Z,2.00
2023-03-18T05:28:18.951Z,2.10
2023-03-18T05:31:13.095Z,2.13
2023-03-18T05:34:00.431Z,2.30
2023-03-18T05:36:49.869Z,2.40
2023-03-18T05:39:36.048Z,2.30
2023-03-18T05:42:25.455Z,2.13
2023-03-18T05:45:10.680Z,2.73
2023-03-18T05:48:06.613Z,2.33
2023-03-18T05:50:59.468Z,1.97
2023-03-18T05:53:48.649Z,2.27
2023-03-18T05:56:43.183Z,2.40
2023-03-18T05:59:30.201Z,2.17
2023-03-18T06:02:18.382Z,2.23
2023-03-18T06:05:04.451Z,2.30
2023-03-18T06:07:50.335Z,2.00
2023-03-18T06:10:35.562Z,2.50
2023-03-18T06:13:21.629Z,2.17
2023-03-18T06:16:07.225Z,2.03
2023-03-18T06:18:52.508Z,2.20
2023-03-18T06:21:39.322Z,2.10
2023-03-18T06:24:24.773Z,2.03
2023-03-18T06:27:11.119Z,2.07
2023-03-18T06:30:02.888Z,1.77
2023-03-18T06:32:48.887Z,2.30
2023-03-18T06:35:35.378Z,1.70
2023-03-18T06:38:20.992Z,2.40
2023-03-18T06:41:06.579Z,2.10
2023-03-18T06:43:55.812Z,1.83
2023-03-18T06:46:43.822Z,2.07
2023-03-18T06:49:30.857Z,2.43
2023-03-18T06:52:25.447Z,1.97
2023-03-18T06:55:15.375Z,2.17
2023-03-18T06:58:02.986Z,1.93
2023-03-18T07:00:59.018Z,2.37
2023-03-18T07:03:49.188Z,2.10
2023-03-18T07:06:34.637Z,2.03
2023-03-18T07:09:19.950Z,1.90
2023-03-18T07:12:14.482Z,2.00
2023-03-18T07:15:01.156Z,2.00
2023-03-18T07:17:46.523Z,1.90
2023-03-18T07:20:32.532Z,1.97
2023-03-18T07:23:18.297Z,2.33
2023-03-18T07:26:03.446Z,2.33
2023-03-18T07:28:48.625Z,2.03
2023-03-18T07:31:34.127Z,1.93
2023-03-18T07:34:19.883Z,2.37
2023-03-18T07:37:05.347Z,1.80
2023-03-18T07:39:50.761Z,2.00
2023-03-18T07:42:36.317Z,2.30
2023-03-18T07:45:21.729Z,2.00
2023-03-18T07:48:07.616Z,2.20
2023-03-18T07:50:52.777Z,2.30
2023-03-18T07:53:38.238Z,2.10
2023-03-18T07:56:23.141Z,1.90
2023-03-18T07:59:09.226Z,1.83
2023-03-18T08:01:54.609Z,2.03
2023-03-18T08:04:39.660Z,2.07
2023-03-18T08:07:25.341Z,2.20
2023-03-18T08:10:11.805Z,2.10
2023-03-18T08:12:57.719Z,2.10
2023-03-18T08:15:43.268Z,2.00
2023-03-18T08:18:28.441Z,2.00
2023-03-18T08:21:13.556Z,2.10
2023-03-18T08:23:58.692Z,2.00
2023-03-18T08:26:43.820Z,2.13
2023-03-18T08:29:28.928Z,2.10
2023-03-18T08:32:13.850Z,2.10
2023-03-18T08:34:58.973Z,2.40
2023-03-18T08:37:44.128Z,2.13
2023-03-18T08:40:29.141Z,2.10
2023-03-18T08:43:14.260Z,2.43
2023-03-18T08:45:59.598Z,1.80
2023-03-18T08:48:44.685Z,1.90
2023-03-18T08:51:29.757Z,1.93
2023-03-18T08:54:14.947Z,2.30
2023-03-18T08:57:00.656Z,1.93
2023-03-18T08:59:45.910Z,2.37
2023-03-18T09:02:31.255Z,2.07
2023-03-18T09:05:17.781Z,2.07
2023-03-18T09:08:03.799Z,2.00
2023-03-18T09:10:52.415Z,2.03
2023-03-18T09:13:39.271Z,2.07
2023-03-18T09:16:24.570Z,2.00
2023-03-18T09:19:09.826Z,2.10
2023-03-18T09:21:54.740Z,1.87
2023-03-18T09:24:40.594Z,1.90
2023-03-18T09:27:26.291Z,2.03
2023-03-18T09:30:11.759Z,2.00
2023-03-18T09:32:57.483Z,2.20
2023-03-18T09:35:42.917Z,1.90
2023-03-18T09:38:28.080Z,2.00
2023-03-18T09:41:21.609Z,2.00
2023-03-18T09:44:23.651Z,2.10
2023-03-18T09:47:24.551Z,1.97
2023-03-18T09:50:21.037Z,2.17
2023-03-18T09:53:36.267Z,2.27
2023-03-18T09:56:26.712Z,1.90
2023-03-18T09:59:20.099Z,2.20
2023-03-18T10:02:18.292Z,1.90
2023-03-18T10:05:33.448Z,2.27
2023-03-18T10:08:46.729Z,2.03
2023-03-18T10:11:44.562Z,2.40
2023-03-18T10:14:42.372Z,2.10
2023-03-18T10:17:37.305Z,2.30
2023-03-18T10:20:51.904Z,2.07
2023-03-18T10:24:02.049Z,2.10
2023-03-18T10:27:08.825Z,1.90
2023-03-18T10:30:27.490Z,2.20
2023-03-18T10:33:12.686Z,2.40
2023-03-18T10:36:13.894Z,1.90
2023-03-18T10:39:00.042Z,1.90
2023-03-18T10:41:50.072Z,2.10
2023-03-18T10:44:38.573Z,2.20
2023-03-18T10:47:36.904Z,1.97
2023-03-18T10:50:31.481Z,1.93
2023-03-18T10:53:27.761Z,2.20
2023-03-18T10:56:15.415Z,1.90
2023-03-18T10:59:01.273Z,2.33
2023-03-18T11:01:57.801Z,2.10
2023-03-18T11:04:57.557Z,2.17
2023-03-18T11:07:59.824Z,2.17
2023-03-18T11:10:46.153Z,2.30
2023-03-18T11:13:31.051Z,2.23
2023-03-18T11:16:38.395Z,2.00
2023-03-18T11:19:41.199Z,2.10
2023-03-18T11:22:27.759Z,1.83
2023-03-18T11:25:23.070Z,2.37
2023-03-18T11:28:19.692Z,2.20
2023-03-18T11:31:05.738Z,1.97
2023-03-18T11:33:58.735Z,2.13
2023-03-18T11:36:53.681Z,2.20
2023-03-18T11:39:40.725Z,2.00
2023-03-18T11:42:26.172Z,1.73
2023-03-18T11:45:26.365Z,2.00
2023-03-18T11:48:43.079Z,2.23
2023-03-18T11:51:31.818Z,2.57
2023-03-18T11:54:30.913Z,2.30
2023-03-18T11:57:27.375Z,2.00
2023-03-18T12:00:28.638Z,2.07
2023-03-18T12:03:40.981Z,2.33
2023-03-18T12:06:31.527Z,1.93
2023-03-18T12:09:30.412Z,2.13
2023-03-18T12:12:40.884Z,2.13
2023-03-18T12:15:42.960Z,1.93
2023-03-18T12:18:42.865Z,2.20
2023-03-18T12:21:41.206Z,2.10
2023-03-18T12:24:50.067Z,2.17
2023-03-18T12:28:17.882Z,1.90
2023-03-18T12:31:14.567Z,1.93
2023-03-18T12:34:02.898Z,2.10
2023-03-18T12:37:07.283Z,2.20
2023-03-18T12:40:06.118Z,2.10
2023-03-18T12:43:07.494Z,2.30
2023-03-18T12:45:59.979Z,2.43
2023-03-18T12:49:01.452Z,1.80
2023-03-18T12:52:14.123Z,2.00
2023-03-18T12:55:11.493Z,2.10
2023-03-18T12:58:01.305Z,2.00
2023-03-18T13:00:57.147Z,2.30
2023-03-18T13:03:54.638Z,1.83
2023-03-18T13:06:43.732Z,2.07
2023-03-18T13:09:41.188Z,1.93
2023-03-18T13:12:37.270Z,2.10
2023-03-18T13:15:31.914Z,1.93
2023-03-18T13:18:27.248Z,2.30
2023-03-18T13:21:16.123Z,2.00
2023-03-18T13:24:19.537Z,2.30
2023-03-18T13:27:13.874Z,2.03
2023-03-18T13:30:11.485Z,1.70
2023-03-18T13:33:42.622Z,1.93
2023-03-18T13:36:52.104Z,1.90
2023-03-18T13:39:43.415Z,1.80
2023-03-18T13:42:31.786Z,2.10
2023-03-18T13:45:42.499Z,1.73
2023-03-18T13:48:35.554Z,1.90
2023-03-18T13:51:47.931Z,1.90
2023-03-18T13:54:34.821Z,1.93
2023-03-18T13:57:29.067Z,1.80
2023-03-18T14:00:35.069Z,1.93
2023-03-18T14:03:29.778Z,1.60
2023-03-18T14:06:38.578Z,2.00
2023-03-18T14:09:32.841Z,1.70
2023-03-18T14:12:22.200Z,1.87
2023-03-18T14:15:08.034Z,2.03
2023-03-18T14:17:58.106Z,2.10
2023-03-18T14:20:43.839Z,1.90
2023-03-18T14:23:33.823Z,2.00
2023-03-18T14:26:22.046Z,2.10
2023-03-18T14:29:07.209Z,2.00
2023-03-18T14:32:00.390Z,2.10
2023-03-18T14:35:18.321Z,1.97
2023-03-18T14:38:15.638Z,1.70
2023-03-18T14:41:03.448Z,1.67
2023-03-18T14:44:07.795Z,1.70
2023-03-18T14:46:59.657Z,1.80
2023-03-18T14:49:51.019Z,1.70
2023-03-18T14:52:40.959Z,1.60
2023-03-18T14:55:32.520Z,1.63
2023-03-18T14:58:20.362Z,1.90
2023-03-18T15:01:11.883Z,1.90
2023-03-18T15:03:57.372Z,2.17
2023-03-18T15:06:43.027Z,2.10
2023-03-18T15:09:31.240Z,1.70
2023-03-18T15:12:26.635Z,2.00
2023-03-18T15:15:16.190Z,2.30
2023-03-18T15:18:11.790Z,2.40
2023-03-18T15:21:21.092Z,3.87
2023-03-18T15:24:08.012Z,3.70
2023-03-18T15:26:57.384Z,3.63
2023-03-18T15:29:55.769Z,3.20
2023-03-18T15:32:51.777Z,3.10
2023-03-18T15:35:37.989Z,3.43
2023-03-18T15:38:28.946Z,2.77
2023-03-18T15:41:14.128Z,2.80
2023-03-18T15:43:59.370Z,2.90
2023-03-18T15:46:47.554Z,3.23
2023-03-18T15:49:33.199Z,3.13
2023-03-18T15:52:26.839Z,3.60
2023-03-18T15:55:35.202Z,3.67
2023-03-18T15:58:34.388Z,3.20
2023-03-18T16:01:19.720Z,3.60
2023-03-18T16:04:08.155Z,3.07
2023-03-18T16:06:53.760Z,3.07
2023-03-18T16:09:38.990Z,2.80
2023-03-18T16:12:25.247Z,4.73
2023-03-18T16:15:16.803Z,33.93
2023-03-18T16:18:02.456Z,91.17
2023-03-18T16:20:49.161Z,61.37
2023-03-18T16:23:34.463Z,45.27
2023-03-18T16:26:19.805Z,34.00
2023-03-18T16:29:14.824Z,23.70
2023-03-18T16:32:00.763Z,17.53
2023-03-18T16:34:46.837Z,17.40
2023-03-18T16:37:32.395Z,20.80
2023-03-18T16:40:20.544Z,21.80
2023-03-18T16:43:22.153Z,21.97
2023-03-18T16:46:13.390Z,20.60
2023-03-18T16:48:59.499Z,22.13
2023-03-18T16:51:44.600Z,20.43
2023-03-18T16:54:32.605Z,20.77
2023-03-18T16:57:21.531Z,20.27
2023-03-18T17:00:22.240Z,19.37
2023-03-18T17:03:11.139Z,18.97
2023-03-18T17:05:57.300Z,18.90
2023-03-18T17:08:42.394Z,17.57
2023-03-18T17:11:27.598Z,18.40
2023-03-18T17:14:34.739Z,16.63
2023-03-18T17:17:29.960Z,16.53
2023-03-18T17:20:19.970Z,15.93
2023-03-18T17:23:06.150Z,15.37
2023-03-18T17:25:54.070Z,15.97
2023-03-18T17:28:45.525Z,15.50
2023-03-18T17:31:30.428Z,15.37
2023-03-18T17:34:15.656Z,14.27
2023-03-18T17:37:00.742Z,15.87
2023-03-18T17:39:45.654Z,13.63
2023-03-18T17:42:33.929Z,15.20
2023-03-18T17:45:28.374Z,11.63
2023-03-18T17:48:19.958Z,12.87
2023-03-18T17:51:12.800Z,13.17
2023-03-18T17:53:59.942Z,13.30
2023-03-18T17:56:45.922Z,11.57
2023-03-18T17:59:31.563Z,11.53
2023-03-18T18:02:18.141Z,11.77
2023-03-18T18:05:03.130Z,11.00
2023-03-18T18:07:49.009Z,11.67
2023-03-18T18:10:34.213Z,11.47
2023-03-18T18:13:22.660Z,11.47
2023-03-18T18:16:08.035Z,10.60
2023-03-18T18:18:53.607Z,10.57
2023-03-18T18:21:38.464Z,9.63
2023-03-18T18:24:25.790Z,10.23
2023-03-18T18:27:12.944Z,9.73
2023-03-18T18:29:57.980Z,9.57
2023-03-18T18:32:44.423Z,8.60
2023-03-18T18:35:29.900Z,9.50
2023-03-18T18:38:15.617Z,9.00
2023-03-18T18:41:01.730Z,9.27
2023-03-18T18:43:46.692Z,9.17
2023-03-18T18:46:32.107Z,8.23
2023-03-18T18:49:22.632Z,9.37
2023-03-18T18:52:12.002Z,8.70
2023-03-18T18:54:57.135Z,8.33
2023-03-18T18:57:42.703Z,8.30
2023-03-18T19:00:28.546Z,8.70
2023-03-18T19:03:19.485Z,8.43
2023-03-18T19:06:05.678Z,7.63
2023-03-18T19:08:50.973Z,7.90
2023-03-18T19:11:36.788Z,8.33
2023-03-18T19:14:27.149Z,7.80
2023-03-18T19:17:15.513Z,7.37
2023-03-18T19:20:00.867Z,7.30
2023-03-18T19:22:45.799Z,7.30
2023-03-18T19:25:31.491Z,7.40
2023-03-18T19:28:28.785Z,7.27
2023-03-18T19:31:35.009Z,6.73
2023-03-18T19:34:21.232Z,6.83
2023-03-18T19:37:12.835Z,6.37
2023-03-18T19:40:00.148Z,6.53
2023-03-18T19:42:46.164Z,6.80
2023-03-18T19:45:32.167Z,6.50
2023-03-18T19:48:19.907Z,6.47
2023-03-18T19:51:08.048Z,6.20
2023-03-18T19:53:53.049Z,6.30
2023-03-18T19:56:38.290Z,5.90
2023-03-18T19:59:33.521Z,5.90
2023-03-18T20:02:29.562Z,5.87
2023-03-18T20:05:25.816Z,6.03
2023-03-18T20:08:11.749Z,5.77
2023-03-18T20:10:58.777Z,6.00
2023-03-18T20:13:44.549Z,6.40
2023-03-18T20:16:29.617Z,5.30
2023-03-18T20:19:15.408Z,5.60
2023-03-18T20:22:00.639Z,5.50
2023-03-18T20:24:46.824Z,5.63
2023-03-18T20:27:32.567Z,5.13
2023-03-18T20:30:24.873Z,5.27
2023-03-18T20:33:10.336Z,5.37
2023-03-18T20:35:56.156Z,5.10
2023-03-18T20:38:43.094Z,4.73
2023-03-18T20:41:29.336Z,4.57
2023-03-18T20:44:14.592Z,4.97
2023-03-18T20:46:59.761Z,5.40
2023-03-18T20:49:46.026Z,5.43
2023-03-18T20:52:32.029Z,4.50
2023-03-18T20:55:27.534Z,5.23
2023-03-18T20:58:18.456Z,5.57
2023-03-18T21:01:04.284Z,5.47
2023-03-18T21:03:49.503Z,5.00
2023-03-18T21:06:34.555Z,4.87
2023-03-18T21:09:19.394Z,4.70
2023-03-18T21:12:04.584Z,5.10
2023-03-18T21:14:50.341Z,4.43
2023-03-18T21:17:36.207Z,4.43
2023-03-18T21:20:26.379Z,4.57
2023-03-18T21:23:38.090Z,4.57
2023-03-18T21:26:23.456Z,4.00
2023-03-18T21:29:08.368Z,4.80
2023-03-18T21:31:53.360Z,4.30
2023-03-18T21:34:38.255Z,4.27
2023-03-18T21:37:25.602Z,4.17
2023-03-18T21:40:22.445Z,4.17
2023-03-18T21:43:38.145Z,4.70
2023-03-18T21:46:24.759Z,3.60
2023-03-18T21:49:09.804Z,4.67
2023-03-18T21:51:54.670Z,3.87
2023-03-18T21:54:39.687Z,4.07
2023-03-18T21:57:26.128Z,4.50
2023-03-18T22:00:16.633Z,4.67
2023-03-18T22:03:02.366Z,4.10
2023-03-18T22:05:48.712Z,4.43
2023-03-18T22:08:34.175Z,4.23
2023-03-18T22:11:21.958Z,4.50
2023-03-18T22:14:13.190Z,4.10
2023-03-18T22:16:58.250Z,3.87
2023-03-18T22:19:43.114Z,4.07
2023-03-18T22:22:36.731Z,3.73
2023-03-18T22:25:38.930Z,3.53
2023-03-18T22:28:25.961Z,4.07
2023-03-18T22:31:17.679Z,4.23
2023-03-18T22:34:03.326Z,4.03
2023-03-18T22:36:48.415Z,3.73
2023-03-18T22:39:33.208Z,4.03
2023-03-18T22:42:21.207Z,3.87
2023-03-18T22:45:18.201Z,4.00
2023-03-18T22:48:04.730Z,3.53
2023-03-18T22:50:50.384Z,3.97
2023-03-18T22:53:40.625Z,3.63
2023-03-18T22:56:26.099Z,3.60
2023-03-18T22:59:12.473Z,3.83
2023-03-18T23:01:58.361Z,3.77
2023-03-18T23:04:43.917Z,3.90
2023-03-18T23:07:32.127Z,4.27
2023-03-18T23:10:18.449Z,3.50
2023-03-18T23:13:15.416Z,3.77
2023-03-18T23:16:02.584Z,3.17
2023-03-18T23:18:49.075Z,3.60
2023-03-18T23:21:35.303Z,3.60
2023-03-18T23:24:20.464Z,3.70
2023-03-18T23:27:05.549Z,3.77
2023-03-18T23:29:51.243Z,3.70
2023-03-18T23:32:37.249Z,3.50
2023-03-18T23:35:23.136Z,4.47
2023-03-18T23:38:08.514Z,3.90
2023-03-18T23:40:53.947Z,3.70
2023-03-18T23:43:39.251Z,3.57
2023-03-18T23:46:24.869Z,3.70
2023-03-18T23:49:13.091Z,3.53
2023-03-18T23:52:03.361Z,3.40
2023-03-18T23:54:48.822Z,3.83
2023-03-18T23:57:34.243Z,3.37
